Time;durP1;ratioP1;P1;durP2;ratioP2;P2;SDS_P1;SDS_P2;PMS_P1;PMS_P2;Temp;Humidity;BMP_temperature;BMP_pressure;BME280_temperature;BME280_humidity;BME280_pressure;Samples;Min_cycle;Max_cycle;Signal;HPM_P1;HPM_P2
2021/11/27 00:01:26;;;;;;;62.78;39.75;;;180.00;2252.80;;;;;;5073075;28;20029;-77
2021/11/27 00:03:54;;;;;;;67.45;40.22;;;180.00;2252.80;;;;;;5073416;28;20487;-77
2021/11/27 00:06:24;;;;;;;82.68;44.03;;;179.80;2252.80;;;;;;5071014;28;20120;-77
2021/11/27 00:08:51;;;;;;;95.65;54.33;;;179.90;2252.80;;;;;;5083897;28;20028;-84
2021/11/27 00:11:17;;;;;;;88.88;48.08;;;179.80;2252.80;;;;;;5063241;28;20422;-82
2021/11/27 00:13:43;;;;;;;71.63;42.15;;;179.80;2252.80;;;;;;5093467;28;20134;-82
2021/11/27 00:16:09;;;;;;;93.80;51.38;;;179.90;2252.80;;;;;;5076190;28;20058;-85
2021/11/27 00:18:35;;;;;;;78.45;47.72;;;179.80;2252.80;;;;;;5076645;28;20031;-85
2021/11/27 00:21:05;;;;;;;69.97;42.97;;;179.80;2252.80;;;;;;5076578;28;20031;-83
2021/11/27 00:23:31;;;;;;;74.90;43.58;;;179.80;2252.80;;;;;;5093458;28;20111;-84
2021/11/27 00:25:58;;;;;;;80.85;43.53;;;179.90;2252.80;;;;;;5094062;28;20112;-83
2021/11/27 00:28:24;;;;;;;87.18;54.72;;;179.90;2252.80;;;;;;5075835;28;20032;-84
2021/11/27 00:30:52;;;;;;;81.32;49.58;;;179.90;2252.80;;;;;;5087426;28;20028;-84
2021/11/27 00:33:18;;;;;;;94.30;56.17;;;179.90;2252.80;;;;;;5076543;28;20034;-84
2021/11/27 00:35:44;;;;;;;125.85;73.93;;;179.80;2252.80;;;;;;5075975;28;20123;-84
2021/11/27 00:38:10;;;;;;;111.07;65.33;;;179.80;2252.80;;;;;;5076271;28;20114;-84
2021/11/27 00:40:40;;;;;;;108.47;61.30;;;179.70;2252.80;;;;;;5076277;28;20024;-83
2021/11/27 00:43:08;;;;;;;93.03;59.00;;;179.70;2252.80;;;;;;5076374;28;20028;-83
2021/11/27 00:45:35;;;;;;;99.93;56.67;;;179.80;2252.80;;;;;;5093115;28;20566;-84
2021/11/27 00:48:01;;;;;;;87.95;55.10;;;179.80;2252.80;;;;;;5093005;28;20051;-84
2021/11/27 00:50:36;;;;;;;128.05;73.28;;;179.80;2252.80;;;;;;5076110;28;20036;-84
2021/11/27 00:53:03;;;;;;;101.00;57.17;;;179.90;2252.80;;;;;;5093115;28;20051;-85
2021/11/27 00:55:31;;;;;;;104.18;56.15;;;179.90;2252.80;;;;;;5092735;28;20032;-84
2021/11/27 00:57:57;;;;;;;82.90;47.20;;;179.90;2252.80;;;;;;5092230;28;20082;-84
2021/11/27 01:00:31;;;;;;;89.90;50.22;;;179.90;2252.80;;;;;;5092891;28;20032;-84
2021/11/27 01:02:58;;;;;;;104.65;60.67;;;179.90;2252.80;;;;;;5092661;28;20037;-83
2021/11/27 01:05:24;;;;;;;91.63;51.15;;;179.80;2252.80;;;;;;5075958;28;20126;-84
2021/11/27 01:07:50;;;;;;;78.17;46.63;;;179.80;2252.80;;;;;;5092455;28;20044;-85
2021/11/27 01:10:24;;;;;;;86.43;48.20;;;179.80;2252.80;;;;;;5093465;28;20032;-84
2021/11/27 01:12:51;;;;;;;84.32;48.17;;;179.90;2252.80;;;;;;5092137;28;20028;-83
2021/11/27 01:15:21;;;;;;;76.95;41.40;;;179.90;2252.80;;;;;;5091915;28;20024;-79
2021/11/27 01:17:49;;;;;;;65.35;38.88;;;179.80;2252.80;;;;;;5093047;28;20024;-79
2021/11/27 01:20:18;;;;;;;63.38;34.80;;;179.80;2252.80;;;;;;5092653;28;20055;-79
2021/11/27 01:22:44;;;;;;;59.67;36.07;;;179.80;2252.80;;;;;;5077483;28;20032;-80
2021/11/27 01:25:11;;;;;;;54.87;33.70;;;179.80;2252.80;;;;;;5078847;28;20032;-79
2021/11/27 01:27:37;;;;;;;55.25;33.97;;;179.90;2252.80;;;;;;5095410;28;20127;-80
2021/11/27 01:30:08;;;;;;;66.53;38.72;;;179.90;2252.80;;;;;;5096601;28;20391;-80
2021/11/27 01:32:34;;;;;;;74.18;42.25;;;179.90;2252.80;;;;;;5095496;28;20383;-80
2021/11/27 01:35:00;;;;;;;62.05;37.63;;;179.80;2252.80;;;;;;5096473;28;20038;-80
2021/11/27 01:37:26;;;;;;;60.30;37.40;;;179.90;2252.80;;;;;;5096385;28;20114;-80
2021/11/27 01:39:51;;;;;;;83.32;47.58;;;179.90;2252.80;;;;;;5096311;28;20463;-79
2021/11/27 01:42:17;;;;;;;98.88;57.70;;;179.90;2252.80;;;;;;5078233;28;20024;-80
2021/11/27 01:44:43;;;;;;;94.53;57.45;;;179.80;2252.80;;;;;;5096381;28;20051;-79
2021/11/27 01:47:10;;;;;;;98.28;56.10;;;179.80;2252.80;;;;;;5096401;28;20099;-79
2021/11/27 01:49:39;;;;;;;103.97;54.35;;;179.80;2252.80;;;;;;5094871;28;20043;-79
2021/11/27 01:52:05;;;;;;;91.95;49.65;;;179.90;2252.80;;;;;;5096270;28;20059;-80
2021/11/27 01:54:31;;;;;;;91.88;51.70;;;180.00;2252.80;;;;;;5096152;28;20063;-78
2021/11/27 01:57:01;;;;;;;83.22;49.55;;;179.90;2252.80;;;;;;5095999;28;20028;-78
2021/11/27 01:59:29;;;;;;;86.60;45.85;;;179.90;2252.80;;;;;;5095897;28;20035;-78
2021/11/27 02:01:56;;;;;;;75.80;43.47;;;179.90;2252.80;;;;;;5094824;28;20028;-78
2021/11/27 02:04:23;;;;;;;76.75;41.88;;;179.90;2252.80;;;;;;5095182;28;20468;-79
2021/11/27 02:06:49;;;;;;;78.07;45.05;;;179.90;2252.80;;;;;;5077703;28;20143;-79
2021/11/27 02:09:20;;;;;;;73.70;41.00;;;179.90;2252.80;;;;;;5095798;28;20162;-79
2021/11/27 02:11:48;;;;;;;70.80;39.70;;;179.90;2252.80;;;;;;5094580;28;20032;-79
2021/11/27 02:14:14;;;;;;;69.05;40.97;;;179.90;2252.80;;;;;;5077660;28;20031;-78
2021/11/27 02:16:41;;;;;;;71.18;40.30;;;179.90;2252.80;;;;;;5077648;28;20028;-79
2021/11/27 02:19:08;;;;;;;62.75;35.70;;;179.80;2252.80;;;;;;5094738;28;20028;-79
2021/11/27 02:21:34;;;;;;;50.47;28.80;;;179.70;2252.80;;;;;;5077601;28;20028;-81
2021/11/27 02:24:00;;;;;;;71.00;39.97;;;179.80;2252.80;;;;;;5095729;28;20426;-78
2021/11/27 02:26:29;;;;;;;75.45;41.17;;;179.70;2252.80;;;;;;5094402;28;20031;-78
2021/11/27 02:29:12;;;;;;;68.00;39.00;;;179.60;2252.80;;;;;;5095646;28;20081;-78
2021/11/27 02:31:38;;;;;;;79.32;42.75;;;179.50;2252.80;;;;;;5095070;28;20085;-79
2021/11/27 02:34:06;;;;;;;93.80;47.58;;;179.50;2252.80;;;;;;5093718;28;20366;-79
2021/11/27 02:36:33;;;;;;;73.82;41.70;;;179.40;2252.80;;;;;;5095256;28;20028;-79
2021/11/27 02:38:59;;;;;;;60.17;37.38;;;179.30;2252.80;;;;;;5093787;28;20085;-79
2021/11/27 02:41:25;;;;;;;63.10;36.75;;;179.20;2252.80;;;;;;5084150;28;20032;-79
2021/11/27 02:43:52;;;;;;;62.92;36.22;;;179.30;2252.80;;;;;;5068249;28;20050;-79
2021/11/27 02:46:18;;;;;;;56.83;33.90;;;179.40;2252.80;;;;;;5095139;28;20027;-79
2021/11/27 02:48:44;;;;;;;64.87;36.07;;;179.50;2252.80;;;;;;5093580;28;20047;-79
2021/11/27 02:51:11;;;;;;;77.65;45.45;;;179.50;2252.80;;;;;;5093828;28;20115;-78
2021/11/27 02:53:37;;;;;;;56.87;35.90;;;179.60;2252.80;;;;;;5094872;28;20020;-79
2021/11/27 02:56:04;;;;;;;45.67;27.52;;;179.50;2252.80;;;;;;5094836;28;20050;-79
2021/11/27 02:58:30;;;;;;;43.85;25.40;;;179.30;2252.80;;;;;;5093677;28;20111;-79
2021/11/27 03:00:58;;;;;;;40.45;24.77;;;179.50;2252.80;;;;;;5093459;28;20409;-79
2021/11/27 03:03:24;;;;;;;40.45;24.25;;;179.50;2252.80;;;;;;5097635;28;20020;-78
2021/11/27 03:05:51;;;;;;;39.45;25.42;;;179.40;2252.80;;;;;;5100318;28;20019;-78
2021/11/27 03:08:17;;;;;;;46.53;24.92;;;179.40;2252.80;;;;;;5099157;28;20056;-79
2021/11/27 03:10:44;;;;;;;46.28;27.30;;;179.40;2252.80;;;;;;5093945;28;20034;-78
2021/11/27 03:13:11;;;;;;;43.53;25.30;;;179.40;2252.80;;;;;;5094749;28;20422;-78
2021/11/27 03:15:41;;;;;;;46.72;24.23;;;179.40;2252.80;;;;;;5094959;28;20107;-79
2021/11/27 03:18:09;;;;;;;46.20;26.23;;;179.50;2252.80;;;;;;5076611;28;20384;-78
2021/11/27 03:20:35;;;;;;;38.67;21.13;;;179.50;2252.80;;;;;;5074298;28;20027;-78
2021/11/27 03:23:01;;;;;;;40.50;21.45;;;179.50;2252.80;;;;;;5056393;28;20051;-79
2021/11/27 03:25:27;;;;;;;31.15;19.50;;;179.50;2252.80;;;;;;5074162;28;20020;-79
2021/11/27 03:27:52;;;;;;;28.92;16.75;;;179.50;2252.80;;;;;;5056017;28;20086;-79
2021/11/27 03:30:20;;;;;;;34.28;18.17;;;179.50;2252.80;;;;;;5073925;28;20037;-79
2021/11/27 03:32:47;;;;;;;32.88;19.05;;;179.60;2252.80;;;;;;5056254;28;20025;-80
2021/11/27 03:35:13;;;;;;;36.08;19.42;;;179.70;2252.80;;;;;;5073856;28;20422;-80
2021/11/27 03:37:41;;;;;;;39.00;23.27;;;179.70;2252.80;;;;;;5074414;28;20375;-80
2021/11/27 03:40:10;;;;;;;37.67;22.83;;;179.80;2252.80;;;;;;5056102;28;20051;-79
2021/11/27 03:42:35;;;;;;;39.50;23.13;;;179.90;2252.80;;;;;;5055854;28;20028;-80
2021/11/27 03:45:04;;;;;;;45.03;25.08;;;179.90;2252.80;;;;;;5055218;28;20021;-79
2021/11/27 03:47:30;;;;;;;41.70;25.00;;;180.00;2252.80;;;;;;5055711;28;20419;-79
2021/11/27 03:49:56;;;;;;;42.28;25.27;;;180.10;2252.80;;;;;;5055787;28;20033;-79
2021/11/27 03:52:22;;;;;;;42.83;24.58;;;180.10;2252.80;;;;;;5073905;28;20021;-79
2021/11/27 03:54:49;;;;;;;34.88;22.63;;;204.80;2252.80;;;;;;5067879;28;20392;-79
2021/11/27 03:57:17;;;;;;;39.90;22.40;;;204.80;2252.80;;;;;;5080933;28;20016;-78
2021/11/27 03:59:43;;;;;;;30.92;20.63;;;204.90;2252.80;;;;;;5073327;28;20108;-77
2021/11/27 04:02:09;;;;;;;29.98;17.52;;;204.90;2252.80;;;;;;5055603;28;20111;-78
2021/11/27 04:04:38;;;;;;;27.05;16.00;;;204.90;2252.80;;;;;;5073374;28;20103;-78
2021/11/27 04:07:04;;;;;;;31.95;20.25;;;204.90;2252.80;;;;;;5055367;28;20098;-77
2021/11/27 04:09:32;;;;;;;30.80;19.20;;;205.00;2252.80;;;;;;5073448;28;20025;-78
2021/11/27 04:11:58;;;;;;;37.88;21.80;;;204.90;2252.80;;;;;;5055296;28;20020;-78
2021/11/27 04:14:24;;;;;;;29.55;18.77;;;204.80;2252.80;;;;;;5055433;28;20031;-78
2021/11/27 04:16:51;;;;;;;27.95;16.65;;;204.90;2252.80;;;;;;5055640;28;20016;-78
2021/11/27 04:19:17;;;;;;;23.95;14.95;;;204.90;2252.80;;;;;;5055277;28;20016;-77
2021/11/27 04:21:43;;;;;;;28.88;16.88;;;204.90;2252.80;;;;;;5055058;28;20044;-78
2021/11/27 04:24:10;;;;;;;32.90;20.48;;;204.90;2252.80;;;;;;5055090;28;20028;-78
2021/11/27 04:26:36;;;;;;;37.90;22.75;;;204.90;2252.80;;;;;;5055591;28;20033;-78
2021/11/27 04:29:02;;;;;;;46.38;28.40;;;204.90;2252.80;;;;;;5073086;28;20086;-78
2021/11/27 04:31:28;;;;;;;60.70;34.97;;;204.90;2252.80;;;;;;5072955;28;20104;-79
2021/11/27 04:33:54;;;;;;;40.17;25.92;;;204.90;2252.80;;;;;;5072991;28;20447;-78
2021/11/27 04:36:21;;;;;;;33.28;21.17;;;204.90;2252.80;;;;;;5073136;28;20038;-79
2021/11/27 04:38:47;;;;;;;40.03;24.70;;;204.90;2252.80;;;;;;5073277;28;20024;-78
2021/11/27 04:41:13;;;;;;;45.30;29.08;;;204.90;2252.80;;;;;;5073122;28;20048;-78
2021/11/27 04:43:39;;;;;;;53.20;29.75;;;204.90;2252.80;;;;;;5072827;28;20115;-78
2021/11/27 04:46:05;;;;;;;61.13;35.70;;;204.90;2252.80;;;;;;5071914;28;20047;-79
2021/11/27 04:48:31;;;;;;;49.95;32.60;;;204.90;2252.80;;;;;;5054790;28;20036;-79
2021/11/27 04:50:57;;;;;;;49.00;29.73;;;204.90;2252.80;;;;;;5073054;28;20730;-79
2021/11/27 04:53:23;;;;;;;48.80;30.67;;;204.90;2252.80;;;;;;5055067;28;20026;-79
2021/11/27 04:55:49;;;;;;;45.08;28.17;;;204.90;2252.80;;;;;;5054851;28;20381;-79
2021/11/27 04:58:14;;;;;;;47.95;29.20;;;204.90;2252.80;;;;;;5058807;28;20024;-79
2021/11/27 05:00:48;;;;;;;44.65;27.33;;;204.90;2252.80;;;;;;5073353;28;20165;-79
2021/11/27 05:03:14;;;;;;;50.95;31.55;;;204.90;2252.80;;;;;;5076981;28;20503;-79
2021/11/27 05:05:39;;;;;;;87.90;52.80;;;204.80;2252.80;;;;;;5060300;28;20036;-79
2021/11/27 05:08:06;;;;;;;79.63;48.00;;;204.80;2252.80;;;;;;5075279;28;20060;-79
2021/11/27 05:10:32;;;;;;;84.20;48.95;;;204.80;2252.80;;;;;;5075464;28;20043;-79
2021/11/27 05:12:58;;;;;;;59.53;36.97;;;204.80;2252.80;;;;;;5075520;28;20031;-79
2021/11/27 05:15:24;;;;;;;46.00;29.65;;;204.80;2252.80;;;;;;5076849;28;20028;-79
2021/11/27 05:17:50;;;;;;;74.57;43.25;;;204.80;2252.80;;;;;;5075522;28;20033;-78
2021/11/27 05:20:16;;;;;;;78.85;46.72;;;180.10;2252.80;;;;;;5075616;28;20086;-79
2021/11/27 05:22:41;;;;;;;74.00;43.65;;;180.10;2252.80;;;;;;5075184;28;20069;-80
2021/11/27 05:25:08;;;;;;;73.55;43.13;;;180.10;2252.80;;;;;;5074654;28;20119;-79
2021/11/27 05:27:35;;;;;;;105.53;59.83;;;180.10;2252.80;;;;;;5074961;28;20021;-80
2021/11/27 05:30:01;;;;;;;110.53;62.75;;;180.00;2252.80;;;;;;5075039;28;20052;-79
2021/11/27 05:35:00;;;;;;;105.78;60.22;;;179.80;2252.80;;;;;;5076351;28;20052;-79
2021/11/27 05:37:26;;;;;;;94.27;55.93;;;179.70;2252.80;;;;;;5075295;28;20068;-79
2021/11/27 05:39:52;;;;;;;70.10;45.28;;;179.60;2252.80;;;;;;5075066;28;20070;-78
2021/11/27 05:42:18;;;;;;;83.53;48.97;;;179.40;2252.80;;;;;;5065622;28;20036;-79
2021/11/27 05:44:46;;;;;;;76.88;46.63;;;179.30;2252.80;;;;;;5075628;28;20047;-79
2021/11/27 05:47:12;;;;;;;90.30;51.05;;;179.30;2252.80;;;;;;5073780;28;20063;-78
2021/11/27 05:49:38;;;;;;;82.38;47.97;;;179.30;2252.80;;;;;;5074480;28;20063;-79
2021/11/27 05:52:05;;;;;;;73.60;45.63;;;179.40;2252.80;;;;;;5075101;28;20032;-78
2021/11/27 05:54:31;;;;;;;77.28;45.33;;;179.50;2252.80;;;;;;5073861;28;20081;-78
2021/11/27 05:56:56;;;;;;;71.43;46.95;;;179.50;2252.80;;;;;;5076348;28;20103;-78
2021/11/27 05:59:22;;;;;;;108.88;59.38;;;179.60;2252.80;;;;;;5075738;28;20465;-78
2021/11/27 06:01:48;;;;;;;88.75;49.80;;;179.50;2252.80;;;;;;5077151;28;20183;-78
2021/11/27 06:04:14;;;;;;;69.20;41.53;;;179.40;2252.80;;;;;;5084015;28;20028;-78
2021/11/27 06:06:39;;;;;;;74.07;42.93;;;179.40;2252.80;;;;;;5088900;28;20050;-78
2021/11/27 06:09:05;;;;;;;89.93;55.75;;;179.40;2252.80;;;;;;5085796;28;20034;-78
2021/11/27 06:11:31;;;;;;;188.45;112.40;;;179.40;2252.80;;;;;;5086478;28;20024;-79
2021/11/27 06:13:57;;;;;;;142.95;86.07;;;179.40;2252.80;;;;;;5086455;28;20050;-79
2021/11/27 06:16:22;;;;;;;126.30;74.57;;;179.40;2252.80;;;;;;5083567;28;20028;-79
2021/11/27 06:18:48;;;;;;;106.53;67.15;;;179.40;2252.80;;;;;;5095045;28;20495;-79
2021/11/27 06:21:16;;;;;;;87.22;51.08;;;179.30;2252.80;;;;;;5095693;28;20091;-78
2021/11/27 06:23:42;;;;;;;73.53;46.80;;;179.40;2252.80;;;;;;5077873;28;20115;-79
2021/11/27 06:26:07;;;;;;;71.88;42.80;;;179.40;2252.80;;;;;;5090878;28;20153;-79
2021/11/27 06:28:33;;;;;;;90.80;51.17;;;179.40;2252.80;;;;;;5095965;28;20146;-79
2021/11/27 06:30:59;;;;;;;92.38;57.80;;;179.40;2252.80;;;;;;5094432;28;20020;-79
2021/11/27 06:33:25;;;;;;;83.67;49.63;;;179.40;2252.80;;;;;;5095648;28;20044;-79
2021/11/27 06:35:51;;;;;;;80.85;48.30;;;179.40;2252.80;;;;;;5095845;28;20040;-79
2021/11/27 06:38:17;;;;;;;93.27;58.57;;;179.50;2252.80;;;;;;5095513;28;20024;-79
2021/11/27 06:40:43;;;;;;;90.32;55.63;;;179.50;2252.80;;;;;;5094537;28;20024;-79
2021/11/27 06:43:08;;;;;;;77.30;50.53;;;179.50;2252.80;;;;;;5095686;28;20032;-79
2021/11/27 06:45:34;;;;;;;100.80;61.40;;;179.60;2252.80;;;;;;5076885;28;20434;-79
2021/11/27 06:48:00;;;;;;;103.03;57.80;;;179.60;2252.80;;;;;;5076808;28;20474;-79
2021/11/27 06:50:26;;;;;;;106.67;64.87;;;179.60;2252.80;;;;;;5095062;28;20043;-79
2021/11/27 06:52:52;;;;;;;149.60;85.07;;;179.60;2252.80;;;;;;5095143;28;20388;-79
2021/11/27 06:55:18;;;;;;;163.52;91.43;;;179.70;2252.80;;;;;;5077132;28;20062;-79
2021/11/27 06:57:44;;;;;;;143.25;82.43;;;179.70;2252.80;;;;;;5079126;28;20035;-80
2021/11/27 07:00:11;;;;;;;112.03;67.27;;;179.70;2252.80;;;;;;5079646;28;20028;-79
2021/11/27 07:02:38;;;;;;;111.03;62.17;;;179.70;2252.80;;;;;;5103067;28;20538;-78
2021/11/27 07:05:04;;;;;;;130.23;73.32;;;179.80;2252.80;;;;;;5081032;28;20028;-79
2021/11/27 07:07:30;;;;;;;147.60;86.77;;;179.80;2252.80;;;;;;5083984;28;20049;-78
2021/11/27 07:09:56;;;;;;;161.50;93.27;;;179.80;2252.80;;;;;;5057654;28;20132;-78
2021/11/27 07:12:21;;;;;;;199.33;118.37;;;179.80;2252.80;;;;;;5057397;28;20025;-77
2021/11/27 07:14:48;;;;;;;193.93;108.03;;;179.70;2252.80;;;;;;5061760;28;20028;-78
2021/11/27 07:17:14;;;;;;;188.53;116.67;;;179.70;2252.80;;;;;;5075372;28;20020;-78
2021/11/27 07:19:40;;;;;;;220.90;128.30;;;179.70;2252.80;;;;;;5056154;28;20028;-79
2021/11/27 07:22:06;;;;;;;163.48;99.60;;;179.70;2252.80;;;;;;5075622;28;20017;-79
2021/11/27 07:24:33;;;;;;;132.98;83.07;;;179.70;2252.80;;;;;;5065437;28;20029;-78
2021/11/27 07:27:03;;;;;;;140.53;81.20;;;179.70;2252.80;;;;;;5075045;28;20365;-78
2021/11/27 07:29:32;;;;;;;127.10;72.53;;;179.80;2252.80;;;;;;5056189;28;20044;-78
2021/11/27 07:31:58;;;;;;;141.80;83.37;;;179.70;2252.80;;;;;;5056578;28;20021;-77
2021/11/27 07:34:24;;;;;;;128.25;82.55;;;179.90;2252.80;;;;;;5059336;28;20480;-79
2021/11/27 07:36:50;;;;;;;125.00;77.85;;;179.90;2252.80;;;;;;5056244;28;20056;-79
2021/11/27 07:39:15;;;;;;;150.95;88.57;;;180.00;2252.80;;;;;;5056392;28;20397;-79
2021/11/27 07:41:41;;;;;;;132.77;82.68;;;180.00;2252.80;;;;;;5055290;28;20029;-80
2021/11/27 07:44:07;;;;;;;112.93;72.68;;;180.10;2252.80;;;;;;5054390;28;20421;-79
2021/11/27 07:46:33;;;;;;;102.15;68.88;;;204.80;2252.80;;;;;;5039516;28;20440;-80
2021/11/27 07:48:59;;;;;;;114.68;71.50;;;204.80;2252.80;;;;;;5036891;28;20041;-79
2021/11/27 07:51:25;;;;;;;118.47;74.82;;;204.90;2252.80;;;;;;5072594;28;20468;-81
2021/11/27 07:53:51;;;;;;;110.57;71.13;;;204.90;2252.80;;;;;;5067953;28;20025;-76
2021/11/27 07:56:17;;;;;;;102.93;63.08;;;205.00;2252.80;;;;;;5056306;28;20086;-79
2021/11/27 07:58:43;;;;;;;62.03;39.05;;;205.10;2252.80;;;;;;5057152;28;20088;-80
2021/11/27 08:01:09;;;;;;;58.95;37.55;;;205.20;2252.80;;;;;;5060139;28;20039;-78
2021/11/27 08:03:34;;;;;;;62.53;40.22;;;205.40;2252.80;;;;;;5056633;28;20020;-80
2021/11/27 08:06:00;;;;;;;51.45;32.97;;;205.50;2252.80;;;;;;5056716;28;20037;-78
2021/11/27 08:08:26;;;;;;;62.80;39.97;;;205.60;2252.80;;;;;;5091074;28;20044;-79
2021/11/27 08:10:52;;;;;;;66.20;40.17;;;230.40;2252.80;;;;;;5065500;28;20024;-80
2021/11/27 08:13:18;;;;;;;74.80;44.65;;;230.50;2252.80;;;;;;5078102;28;20031;-78
2021/11/27 08:15:44;;;;;;;110.15;75.85;;;230.60;2252.80;;;;;;5092841;28;20070;-78
2021/11/27 08:18:10;;;;;;;91.45;58.88;;;230.70;2252.80;;;;;;5093998;28;20472;-77
2021/11/27 08:20:36;;;;;;;82.22;54.47;;;230.90;2252.80;;;;;;5071784;28;20034;-77
2021/11/27 08:23:05;;;;;;;82.47;52.53;;;231.10;2252.80;;;;;;5094086;28;20020;-77
2021/11/27 08:25:31;;;;;;;80.80;52.42;;;231.20;2252.80;;;;;;5075684;28;20032;-77
2021/11/27 08:27:56;;;;;;;74.28;48.33;;;256.20;2252.80;;;;;;5076170;28;20032;-77
2021/11/27 08:30:25;;;;;;;89.75;53.83;;;256.40;2252.80;;;;;;5075454;28;20039;-76
2021/11/27 08:32:51;;;;;;;90.82;58.30;;;256.70;2252.80;;;;;;5093624;28;20099;-77
2021/11/27 08:35:17;;;;;;;89.80;54.28;;;256.80;2252.80;;;;;;5094219;28;20058;-77
2021/11/27 08:37:43;;;;;;;89.93;57.13;;;281.60;2278.40;;;;;;5075815;28;20094;-78
2021/11/27 08:40:10;;;;;;;91.15;59.67;;;281.70;2278.40;;;;;;5093707;28;20021;-76
2021/11/27 08:42:36;;;;;;;88.47;61.22;;;281.80;2278.40;;;;;;5094695;28;20028;-77
2021/11/27 08:45:04;;;;;;;90.10;60.53;;;281.90;2278.40;;;;;;5076659;28;20016;-79
2021/11/27 08:47:29;;;;;;;93.13;59.45;;;282.00;2278.40;;;;;;5093708;28;20039;-78
2021/11/27 08:49:56;;;;;;;105.30;68.32;;;282.20;2278.40;;;;;;5094053;28;20480;-78
2021/11/27 08:52:22;;;;;;;99.53;67.10;;;307.20;2304.00;;;;;;5075329;28;20083;-77
2021/11/27 08:54:48;;;;;;;79.07;56.28;;;307.60;2304.00;;;;;;5094425;28;20054;-79
2021/11/27 08:57:14;;;;;;;82.72;52.97;;;308.00;2304.00;;;;;;5096303;28;20099;-77
2021/11/27 08:59:39;;;;;;;133.90;77.90;;;333.40;2329.60;;;;;;5093405;28;20443;-77
2021/11/27 09:02:06;;;;;;;93.38;58.30;;;358.80;2329.60;;;;;;5093128;28;20032;-77
2021/11/27 09:04:33;;;;;;;70.80;45.67;;;384.10;2329.60;;;;;;5093507;28;20024;-77
2021/11/27 09:07:00;;;;;;;60.80;43.50;;;384.70;2176.00;;;;;;5091771;28;20142;-78
2021/11/27 09:09:26;;;;;;;66.40;47.40;;;410.00;2073.60;;;;;;5075020;28;20024;-78
2021/11/27 09:11:53;;;;;;;58.60;42.88;;;435.50;2022.40;;;;;;5093262;28;20024;-78
2021/11/27 09:14:19;;;;;;;53.75;38.65;;;436.10;1945.60;;;;;;5092447;28;20020;-78
2021/11/27 09:16:46;;;;;;;51.45;37.65;;;461.70;1792.00;;;;;;5093242;28;20024;-78
2021/11/27 09:19:12;;;;;;;49.33;38.17;;;486.90;1792.00;;;;;;5093178;28;20020;-78
2021/11/27 09:21:38;;;;;;;54.70;39.83;;;512.40;1715.20;;;;;;5093118;28;20051;-78
2021/11/27 09:24:04;;;;;;;61.85;44.05;;;537.80;1689.60;;;;;;5093220;28;20107;-78
2021/11/27 09:26:31;;;;;;;71.68;48.08;;;538.10;1664.00;;;;;;5093230;28;20030;-77
2021/11/27 09:28:57;;;;;;;68.03;49.17;;;538.50;1612.80;;;;;;5093185;28;20077;-77
2021/11/27 09:31:23;;;;;;;55.05;39.28;;;563.80;1561.60;;;;;;5092962;28;20026;-77
2021/11/27 09:33:49;;;;;;;54.42;39.55;;;588.80;1484.80;;;;;;5093441;28;20024;-78
2021/11/27 09:36:16;;;;;;;57.00;42.38;;;589.40;1433.60;;;;;;5093576;28;20041;-78
2021/11/27 09:38:43;;;;;;;50.50;40.42;;;614.50;1408.00;;;;;;5074837;28;20024;-80
2021/11/27 09:41:27;;;;;;;55.20;40.65;;;614.70;1382.40;;;;;;5093084;28;20445;-78
2021/11/27 09:43:57;;;;;;;59.40;43.90;;;614.50;1382.40;;;;;;5095066;28;20024;-77
2021/11/27 09:46:24;;;;;;;62.53;45.95;;;589.60;1408.00;;;;;;5096823;28;20016;-78
2021/11/27 09:48:52;;;;;;;62.78;46.63;;;589.10;1433.60;;;;;;5095494;28;20027;-77
2021/11/27 09:51:20;;;;;;;52.03;40.40;;;563.90;1433.60;;;;;;5096840;28;20056;-77
2021/11/27 09:53:48;;;;;;;64.57;42.65;;;538.50;1459.20;;;;;;5096626;28;20024;-78
2021/11/27 09:56:16;;;;;;;96.20;77.03;;;538.00;1536.00;;;;;;5078417;28;20392;-78
2021/11/27 09:58:42;;;;;;;77.53;54.75;;;537.60;1536.00;;;;;;5096612;28;20381;-77
2021/11/27 10:01:08;;;;;;;65.78;47.78;;;512.60;1536.00;;;;;;5095018;28;20035;-80
2021/11/27 10:03:35;;;;;;;105.88;65.65;;;512.20;1536.00;;;;;;5096269;28;20024;-79
2021/11/27 10:06:01;;;;;;;78.22;46.67;;;487.20;1612.80;;;;;;5094723;28;20035;-79
2021/11/27 10:08:27;;;;;;;62.55;39.30;;;486.70;1638.40;;;;;;5096343;28;20046;-79
2021/11/27 10:10:56;;;;;;;98.30;59.25;;;461.60;1715.20;;;;;;5096512;28;20115;-78
2021/11/27 10:13:23;;;;;;;81.53;51.20;;;461.30;1740.80;;;;;;5096426;28;20056;-76
2021/11/27 10:15:51;;;;;;;77.45;49.97;;;461.00;1817.60;;;;;;5095955;28;20103;-79
2021/11/27 10:18:19;;;;;;;48.22;32.42;;;460.80;1868.80;;;;;;5077821;28;20044;-77
2021/11/27 10:20:45;;;;;;;36.38;24.95;;;436.10;1766.40;;;;;;5096908;28;20476;-79
2021/11/27 10:23:12;;;;;;;34.38;26.73;;;436.10;1792.00;;;;;;5096119;28;20435;-77
2021/11/27 10:25:42;;;;;;;41.38;26.88;;;460.80;1766.40;;;;;;5079098;28;20087;-79
2021/11/27 10:28:18;;;;;;;39.10;25.15;;;460.90;1766.40;;;;;;5096415;28;20016;-77
2021/11/27 10:30:46;;;;;;;155.07;79.88;;;460.80;1766.40;;;;;;5096225;28;20039;-77
2021/11/27 10:33:13;;;;;;;77.88;46.00;;;436.10;1740.80;;;;;;5095702;28;20020;-77
2021/11/27 10:35:49;;;;;;;82.97;45.63;;;436.00;1766.40;;;;;;5077731;28;20123;-77
2021/11/27 10:38:14;;;;;;;189.88;101.97;;;436.00;1792.00;;;;;;5095582;28;20107;-79
2021/11/27 10:40:41;;;;;;;122.53;70.57;;;435.90;1817.60;;;;;;5096780;28;20502;-77
2021/11/27 10:43:10;;;;;;;97.95;58.03;;;435.80;1843.20;;;;;;5078611;28;20061;-77
2021/11/27 10:45:40;;;;;;;77.70;47.58;;;435.70;1868.80;;;;;;5079935;28;20373;-77
2021/11/27 10:48:14;;;;;;;64.88;40.25;;;435.50;1868.80;;;;;;5097076;28;20012;-77
2021/11/27 10:50:54;;;;;;;45.22;33.72;;;435.40;1868.80;;;;;;5096158;28;20028;-78
2021/11/27 10:53:25;;;;;;;38.10;26.42;;;435.40;1868.80;;;;;;5097608;28;20016;-77
2021/11/27 10:55:51;;;;;;;52.63;33.20;;;435.30;1817.60;;;;;;5095033;28;20035;-77
2021/11/27 10:58:18;;;;;;;46.90;30.63;;;435.30;1843.20;;;;;;5095719;28;20040;-77
2021/11/27 11:00:53;;;;;;;43.53;25.48;;;435.30;1868.80;;;;;;5095911;28;20020;-77
2021/11/27 11:03:36;;;;;;;39.00;25.52;;;435.40;1868.80;;;;;;5095872;28;20024;-79
2021/11/27 11:06:24;;;;;;;42.65;28.30;;;435.40;1894.40;;;;;;5097025;28;20032;-78
2021/11/27 11:08:52;;;;;;;41.58;27.40;;;435.60;1945.60;;;;;;5095879;28;20034;-78
2021/11/27 11:11:20;;;;;;;37.50;25.98;;;435.70;1945.60;;;;;;5096304;28;20020;-79
2021/11/27 11:13:52;;;;;;;44.00;30.15;;;435.80;1920.00;;;;;;5099409;28;20028;-78
2021/11/27 11:16:19;;;;;;;35.53;21.77;;;435.90;1920.00;;;;;;5098544;28;20050;-78
2021/11/27 11:18:48;;;;;;;35.03;22.52;;;436.10;1868.80;;;;;;5103751;28;20372;-77
2021/11/27 11:21:14;;;;;;;31.33;21.85;;;460.90;1894.40;;;;;;5086420;28;20078;-77
2021/11/27 11:23:43;;;;;;;42.58;27.67;;;461.00;1792.00;;;;;;5104430;28;20426;-79
2021/11/27 11:26:16;;;;;;;42.88;28.35;;;461.20;1766.40;;;;;;5085573;28;20031;-78
2021/11/27 11:29:02;;;;;;;32.38;21.58;;;461.50;1766.40;;;;;;5104166;28;20030;-78
2021/11/27 11:31:32;;;;;;;152.43;83.10;;;486.40;1740.80;;;;;;5103135;28;20027;-79
2021/11/27 11:34:00;;;;;;;45.25;25.63;;;486.60;1664.00;;;;;;5104038;28;20074;-79
2021/11/27 11:36:27;;;;;;;35.45;22.60;;;486.80;1612.80;;;;;;5085460;28;20032;-78
2021/11/27 11:38:58;;;;;;;21.85;13.93;;;486.90;1638.40;;;;;;5104109;28;20024;-79
2021/11/27 11:41:26;;;;;;;25.63;18.02;;;487.20;1561.60;;;;;;5080615;28;20483;-78
2021/11/27 11:43:53;;;;;;;25.75;16.88;;;487.20;1561.60;;;;;;5098458;28;20035;-78
2021/11/27 11:46:20;;;;;;;29.40;19.25;;;487.20;1561.60;;;;;;5103249;28;20506;-77
2021/11/27 11:48:57;;;;;;;30.77;21.35;;;487.20;1612.80;;;;;;5099687;28;20086;-77
2021/11/27 11:51:46;;;;;;;42.75;27.55;;;487.20;1612.80;;;;;;5079970;28;20032;-78
2021/11/27 11:54:16;;;;;;;27.58;19.17;;;487.10;1612.80;;;;;;5094225;28;20131;-77
2021/11/27 11:56:43;;;;;;;28.90;18.90;;;487.00;1638.40;;;;;;5094148;28;20023;-78
2021/11/27 11:59:20;;;;;;;24.98;18.20;;;486.90;1638.40;;;;;;5094087;28;20035;-78